createdAt,value
2022-12-27T06:36:41.285Z,98388.25
2022-12-27T06:42:47.095Z,98418.66
2022-12-27T06:45:15.055Z,98414.97
2022-12-27T06:47:42.713Z,98426.50
2022-12-27T06:50:10.780Z,98432.59
2022-12-27T06:52:38.438Z,98435.22
2022-12-27T06:55:06.474Z,98435.16
2022-12-27T06:57:34.141Z,98441.66
2022-12-27T07:00:02.238Z,98439.03
2022-12-27T07:02:30.070Z,98438.22
2022-12-27T07:04:58.207Z,98432.06
2022-12-27T07:07:26.082Z,98429.84
2022-12-27T07:09:53.897Z,98436.81
2022-12-27T07:12:21.635Z,98431.94
2022-12-27T07:14:49.498Z,98436.53
2022-12-27T07:17:17.146Z,98439.72
2022-12-27T07:19:45.007Z,98445.72
2022-12-27T07:22:12.838Z,98459.53
2022-12-27T07:24:40.515Z,98454.47
2022-12-27T07:27:08.358Z,98457.56
2022-12-27T07:29:40.242Z,98462.44
2022-12-27T07:32:11.445Z,98462.59
2022-12-27T07:34:39.113Z,98469.91
2022-12-27T07:37:07.342Z,98493.81
2022-12-27T07:39:35.167Z,98492.09
2022-12-27T07:42:07.923Z,98500.44
2022-12-27T07:44:38.541Z,98503.53
2022-12-27T07:47:06.386Z,98513.03
2022-12-27T07:49:34.119Z,98533.03
2022-12-27T07:52:01.938Z,98534.88
2022-12-27T07:54:29.599Z,98523.06
2022-12-27T07:56:57.428Z,98532.72
2022-12-27T07:59:25.124Z,98528.44
2022-12-27T08:02:06.167Z,98545.19
2022-12-27T08:04:36.049Z,98539.25
2022-12-27T08:07:10.526Z,98556.44
2022-12-27T08:09:39.479Z,98576.34
2022-12-27T08:12:07.706Z,98564.16
2022-12-27T08:14:35.583Z,98568.56
2022-12-27T08:17:08.707Z,98579.56
2022-12-27T08:19:36.531Z,98585.78
2022-12-27T08:22:05.394Z,98576.59
2022-12-27T08:24:33.241Z,98598.09
2022-12-27T08:27:01.099Z,98597.91
2022-12-27T08:29:29.256Z,98602.69
2022-12-27T08:31:57.349Z,98611.38
2022-12-27T08:34:25.333Z,98628.25
2022-12-27T08:36:55.861Z,98625.84
2022-12-27T08:39:24.560Z,98570.38
2022-12-27T08:41:54.102Z,98481.69
2022-12-27T08:44:22.321Z,98384.59
2022-12-27T08:46:50.111Z,98258.38
2022-12-27T08:49:18.976Z,98177.00
2022-12-27T08:51:46.734Z,98137.00
2022-12-27T08:54:14.593Z,98114.69
2022-12-27T08:56:42.188Z,98125.34
2022-12-27T08:59:09.925Z,98133.09
2022-12-27T09:01:37.920Z,98153.53
2022-12-27T09:04:05.710Z,98163.66
2022-12-27T09:06:33.405Z,98172.41
2022-12-27T09:09:01.628Z,98180.66
2022-12-27T09:11:31.196Z,98199.28
2022-12-27T09:14:03.484Z,98203.91
2022-12-27T09:16:31.592Z,98191.72
2022-12-27T09:18:59.779Z,98194.63
2022-12-27T09:21:29.378Z,98208.31
2022-12-27T09:23:57.170Z,98198.91
2022-12-27T09:26:28.542Z,98191.75
2022-12-27T09:28:57.056Z,98189.84
2022-12-27T09:31:24.959Z,98192.63
2022-12-27T09:33:53.072Z,98178.69
2022-12-27T09:36:22.845Z,98192.41
2022-12-27T09:38:52.830Z,98186.22
2022-12-27T09:42:11.761Z,98191.69
2022-12-27T09:44:12.779Z,98179.41
2022-12-27T09:46:44.881Z,98191.66
2022-12-27T09:49:15.256Z,98181.81
2022-12-27T09:51:49.498Z,98186.97
2022-12-27T09:54:26.317Z,98186.00
2022-12-27T09:57:18.983Z,98191.41
2022-12-27T09:59:45.155Z,98181.75
2022-12-27T10:02:23.788Z,98188.78
2022-12-27T10:05:19.769Z,98179.34
2022-12-27T10:07:55.512Z,98181.91
2022-12-27T10:10:35.664Z,98186.16
2022-12-27T10:13:15.410Z,98183.53
2022-12-27T10:15:55.327Z,98177.41
2022-12-27T10:18:48.691Z,98174.78
2022-12-27T10:21:20.836Z,98168.25
2022-12-27T10:24:29.347Z,98170.19
2022-12-27T10:26:58.244Z,98163.31
2022-12-27T10:29:28.507Z,98162.53
2022-12-27T10:31:56.667Z,98158.59
2022-12-27T10:34:24.864Z,98152.53
2022-12-27T10:36:53.032Z,98154.00
2022-12-27T10:39:26.665Z,98151.47
2022-12-27T10:42:02.583Z,98147.13
2022-12-27T10:44:30.855Z,98142.63
2022-12-27T10:46:58.543Z,98136.00
2022-12-27T10:49:28.450Z,98126.75
2022-12-27T10:51:59.509Z,98130.97
2022-12-27T10:54:30.157Z,98129.47
2022-12-27T10:57:15.848Z,98120.31
2022-12-27T10:59:44.094Z,98120.75
2022-12-27T11:02:17.826Z,98117.59
2022-12-27T11:05:04.263Z,98114.31
2022-12-27T11:07:33.758Z,98114.59
2022-12-27T11:10:25.484Z,98109.63
2022-12-27T11:13:03.426Z,98110.13
2022-12-27T11:15:38.454Z,98104.16
2022-12-27T11:18:12.382Z,98101.81
2022-12-27T11:20:42.986Z,98109.91
2022-12-27T11:23:12.028Z,98104.88
2022-12-27T11:25:58.133Z,98095.53
2022-12-27T11:28:31.791Z,98102.16
2022-12-27T11:31:05.873Z,98100.16
2022-12-27T11:33:40.044Z,98096.25
2022-12-27T11:36:09.239Z,98092.13
2022-12-27T11:38:38.146Z,98087.81
2022-12-27T11:41:11.718Z,98085.03
2022-12-27T11:43:43.383Z,98089.38
2022-12-27T11:46:39.399Z,98089.66
2022-12-27T11:49:09.979Z,98083.03
2022-12-27T11:51:53.445Z,98077.75
2022-12-27T11:54:58.683Z,98065.50
2022-12-27T11:57:48.565Z,98072.94
2022-12-27T12:00:18.011Z,98063.13
2022-12-27T12:03:13.550Z,98063.66
2022-12-27T12:06:05.485Z,98057.22
2022-12-27T12:08:37.340Z,98052.47
2022-12-27T12:11:30.629Z,98048.13
2022-12-27T12:14:17.027Z,98046.66
2022-12-27T12:17:35.667Z,98039.31
2022-12-27T12:20:18.944Z,98032.03
2022-12-27T12:23:17.822Z,98032.81
2022-12-27T12:26:05.725Z,98026.13
2022-12-27T12:28:58.198Z,98026.91
2022-12-27T12:31:38.366Z,98025.50
2022-12-27T12:34:41.043Z,98021.88
2022-12-27T12:37:18.067Z,98012.88
2022-12-27T12:40:11.028Z,98019.97
2022-12-27T12:43:13.604Z,98010.53
2022-12-27T12:45:44.129Z,98020.09
2022-12-27T12:48:51.565Z,98011.63
2022-12-27T12:51:55.246Z,98009.41
2022-12-27T12:54:22.961Z,98000.09
2022-12-27T12:57:12.211Z,98007.38
2022-12-27T13:00:02.376Z,98011.03
2022-12-27T13:02:51.995Z,98010.66
2022-12-27T13:05:58.262Z,98009.09
2022-12-27T13:08:40.909Z,98003.88
2022-12-27T13:11:27.636Z,98006.31
2022-12-27T13:14:14.272Z,98008.34
2022-12-27T13:17:03.653Z,98002.19
2022-12-27T13:19:44.713Z,98003.81
2022-12-27T13:22:30.857Z,98003.00
2022-12-27T13:25:26.885Z,98002.91
2022-12-27T13:28:42.737Z,98000.50
2022-12-27T13:31:26.099Z,97997.97
2022-12-27T13:34:12.125Z,97993.22
2022-12-27T13:37:01.438Z,97986.81
2022-12-27T13:39:56.475Z,97989.41
2022-12-27T13:42:32.839Z,97981.34
2022-12-27T13:45:11.264Z,97976.78
2022-12-27T13:48:19.273Z,97984.94
2022-12-27T13:51:05.615Z,97982.06
2022-12-27T13:54:13.514Z,97981.09
2022-12-27T13:57:17.070Z,97982.53
2022-12-27T14:00:08.104Z,97983.31
2022-12-27T14:02:56.861Z,97984.81
2022-12-27T14:05:45.537Z,97980.41
2022-12-27T14:08:41.625Z,97980.69
2022-12-27T14:11:30.801Z,97976.56
2022-12-27T14:13:58.626Z,97968.91
2022-12-27T14:16:37.329Z,97974.28
2022-12-27T14:19:47.778Z,97986.09
2022-12-27T14:22:54.587Z,97978.75
2022-12-27T14:25:46.721Z,97973.91
2022-12-27T14:28:26.657Z,97970.59
2022-12-27T14:30:57.581Z,97970.22
2022-12-27T14:33:58.235Z,97966.59
2022-12-27T14:36:57.733Z,97971.16
2022-12-27T14:40:03.557Z,97968.84
2022-12-27T14:42:54.957Z,97971.97
2022-12-27T14:45:25.426Z,97970.22
2022-12-27T14:48:16.401Z,97978.03
2022-12-27T14:51:58.661Z,97978.94
2022-12-27T14:54:22.379Z,97977.94
2022-12-27T14:57:17.983Z,97974.41
2022-12-27T15:00:18.256Z,97973.31
2022-12-27T15:03:08.439Z,97979.78
2022-12-27T15:05:36.427Z,97983.34
2022-12-27T15:08:31.744Z,97981.72
2022-12-27T15:11:20.391Z,97979.34
2022-12-27T15:13:56.924Z,97989.19
2022-12-27T15:16:58.240Z,97981.91
2022-12-27T15:19:49.627Z,97993.28
2022-12-27T15:22:46.603Z,97982.91
2022-12-27T15:25:51.120Z,97986.22
2022-12-27T15:28:41.008Z,97987.84
2022-12-27T15:31:35.085Z,97995.28
2022-12-27T15:34:28.264Z,97999.41
2022-12-27T15:36:56.267Z,98002.59
2022-12-27T15:39:32.964Z,98014.41
2022-12-27T15:42:48.099Z,98016.22
2022-12-27T15:45:30.687Z,98014.44
2022-12-27T15:48:27.021Z,98022.59
2022-12-27T15:51:11.896Z,98010.78
2022-12-27T15:54:07.380Z,98024.06
2022-12-27T15:56:55.001Z,98028.31
2022-12-27T15:59:45.423Z,98028.44
2022-12-27T16:02:33.276Z,98037.41
2022-12-27T16:05:02.366Z,98037.41
2022-12-27T16:07:45.129Z,98041.47
2022-12-27T16:10:35.729Z,98050.13
2022-12-27T16:13:09.601Z,98047.81
2022-12-27T16:15:44.823Z,98044.19
2022-12-27T16:18:21.882Z,98050.25
2022-12-27T16:21:21.512Z,98059.44
2022-12-27T16:23:58.068Z,98064.28
